LiveATC.Net - Listen to live air traffic control over the Internet!


ICAO: EHTX  IATA:   Airport: Texel International Airport
City: Texel
Country: Netherlands   Continent: Europe
EHVL METAR Weather: EHVL 161655Z AUTO 22030KT 3000 -RADZ SCT005 BKN006 OVC007 07/06 Q0998 YLO
EHTX Flight Activity (FlightAware)
EHTX Webcam:  (Airport Webcams) 

EHTX Gnd/Twr
Feed Status: UP   Listeners: 0
Listen in your browser - HTML5 player (in browser, HTML5)
Click here to listen with your own player (launches your MP3 player)
EHTX Gnd/Twr Audio Archives
FacilityFrequency
Texel Radio (Ground/Tower)119.300

NOTICE

Unauthorized use prohibited. See LiveATC.net Terms of Service


Find LiveATC Audio Streams


Airport/ARTCC Code

Frequency Search
(e.g., 124.400, 128.75)
Site-wide search
 


Browse LiveATC Feeds
Top 50 LiveATC Feeds
LiveATC Feed Map
Bad Weather Areas

LiveATC FAQ
Offer LiveATC feed
Contact LiveATC.net
Press Inquiries

LiveATC on iPhone
LiveATC on Android

Windows Phone
Windows 8/10

LiveATC Mobile
(Mobile browser)

ATC Audio Archives
Interesting Recordings

LiveATC Forums


Home Page
About LiveATC.net
Make a Donation
Terms of Use
Privacy Policy

Canadian Air Freqs

AIRMETs/SIGMETs

FAA Airport Status
Nat'l Airspace Status
Arrival Demand Charts


Server Software By:
Icecast.org
Liquidsoap